createdAt,value
2017-09-15T00:00:01.563Z,11.70
2017-09-15T00:02:29.885Z,11.90
2017-09-15T00:04:57.355Z,11.80
2017-09-15T00:07:24.851Z,11.80
2017-09-15T00:09:52.337Z,11.80
2017-09-15T00:12:19.865Z,11.90
2017-09-15T00:14:47.348Z,12.00
2017-09-15T00:17:14.821Z,12.00
2017-09-15T00:19:42.301Z,11.90
2017-09-15T00:22:09.791Z,11.80
2017-09-15T00:24:37.270Z,11.80
2017-09-15T00:27:05.509Z,11.80
2017-09-15T00:29:33.032Z,11.80
2017-09-15T00:32:00.501Z,11.90
2017-09-15T00:34:27.985Z,11.90
2017-09-15T00:36:55.554Z,12.00
2017-09-15T00:39:23.116Z,11.90
2017-09-15T00:41:50.584Z,12.00
2017-09-15T00:44:18.827Z,12.00
2017-09-15T00:46:46.300Z,12.00
2017-09-15T00:49:13.861Z,12.00
2017-09-15T00:51:42.102Z,12.00
2017-09-15T00:54:09.592Z,11.90
2017-09-15T00:56:37.068Z,12.00
2017-09-15T00:59:05.306Z,12.00
2017-09-15T01:01:32.794Z,11.90
2017-09-15T01:04:01.067Z,12.10
2017-09-15T01:06:29.295Z,12.10
2017-09-15T01:08:56.889Z,12.00
2017-09-15T01:11:24.367Z,12.10
2017-09-15T01:13:52.676Z,12.00
2017-09-15T01:16:20.154Z,12.00
2017-09-15T01:18:47.620Z,12.10
2017-09-15T01:21:15.102Z,12.20
2017-09-15T01:23:43.323Z,12.20
2017-09-15T01:26:10.928Z,12.20
2017-09-15T01:28:39.157Z,12.30
2017-09-15T01:31:06.657Z,12.20
2017-09-15T01:33:34.129Z,12.20
2017-09-15T01:36:02.394Z,12.20
2017-09-15T01:38:29.870Z,12.10
2017-09-15T01:40:57.355Z,12.20
2017-09-15T01:43:24.822Z,12.20
2017-09-15T01:45:52.449Z,12.20
2017-09-15T01:48:19.928Z,12.20
2017-09-15T01:50:47.389Z,12.20
2017-09-15T01:53:14.889Z,12.30
2017-09-15T01:55:42.363Z,12.40
2017-09-15T01:58:10.613Z,12.40
2017-09-15T02:00:38.088Z,12.40
2017-09-15T02:03:06.335Z,12.40
2017-09-15T02:05:33.902Z,12.40
2017-09-15T02:08:01.372Z,12.40
2017-09-15T02:10:29.608Z,12.40
2017-09-15T02:12:57.114Z,12.40
2017-09-15T02:15:24.557Z,12.40
2017-09-15T02:17:52.029Z,12.50
2017-09-15T02:20:20.267Z,12.50
2017-09-15T02:22:47.846Z,12.50
2017-09-15T02:25:15.309Z,12.50
2017-09-15T02:27:43.588Z,12.60
2017-09-15T02:30:11.854Z,12.60
2017-09-15T02:32:39.367Z,12.60
2017-09-15T02:35:06.869Z,12.70
2017-09-15T02:37:34.438Z,12.70
2017-09-15T02:40:02.669Z,12.70
2017-09-15T02:42:30.149Z,12.70
2017-09-15T02:44:57.615Z,12.70
2017-09-15T02:47:25.094Z,12.70
2017-09-15T02:49:53.348Z,12.80
2017-09-15T02:52:20.910Z,12.70
2017-09-15T02:54:48.388Z,12.80
2017-09-15T02:57:16.643Z,12.90
2017-09-15T02:59:44.118Z,12.80
2017-09-15T03:02:12.354Z,12.90
2017-09-15T03:04:39.925Z,12.90
2017-09-15T03:07:07.451Z,12.90
2017-09-15T03:09:34.922Z,12.90
2017-09-15T03:12:02.460Z,13.00
2017-09-15T03:14:29.953Z,13.00
2017-09-15T03:16:57.421Z,13.00
2017-09-15T03:19:25.749Z,13.00
2017-09-15T03:21:53.224Z,13.00
2017-09-15T03:24:20.706Z,13.00
2017-09-15T03:26:48.165Z,13.00
2017-09-15T03:29:15.642Z,12.90
2017-09-15T03:31:43.113Z,13.00
2017-09-15T03:34:10.610Z,13.10
2017-09-15T03:36:38.091Z,13.10
2017-09-15T03:39:05.553Z,13.10
2017-09-15T03:41:33.028Z,13.10
2017-09-15T03:44:01.258Z,13.10
2017-09-15T03:46:28.730Z,13.00
2017-09-15T03:48:57.002Z,13.10
2017-09-15T03:51:25.984Z,13.00
2017-09-15T03:53:53.517Z,13.00
2017-09-15T03:56:20.998Z,13.10
2017-09-15T03:58:48.470Z,13.10
2017-09-15T04:01:16.718Z,13.00
2017-09-15T04:03:44.186Z,13.00
2017-09-15T04:06:11.666Z,13.00
2017-09-15T04:08:39.140Z,13.00
2017-09-15T04:11:07.386Z,13.10
2017-09-15T04:13:34.857Z,13.00
2017-09-15T04:16:02.406Z,13.10
2017-09-15T04:18:29.869Z,13.10
2017-09-15T04:20:57.345Z,13.10
2017-09-15T04:23:25.574Z,13.10
2017-09-15T04:25:53.045Z,13.10
2017-09-15T04:28:20.526Z,13.10
2017-09-15T04:30:48.770Z,13.10
2017-09-15T04:33:16.345Z,13.10
2017-09-15T04:35:43.813Z,13.10
2017-09-15T04:38:12.049Z,13.10
2017-09-15T04:40:39.519Z,13.10
2017-09-15T04:43:07.007Z,13.10
2017-09-15T04:45:35.246Z,13.10
2017-09-15T04:48:02.817Z,13.10
2017-09-15T04:50:30.277Z,13.10
2017-09-15T04:52:57.749Z,13.10
2017-09-15T04:55:26.027Z,13.10
2017-09-15T04:57:54.287Z,13.20
2017-09-15T05:00:22.526Z,13.10
2017-09-15T05:02:50.047Z,13.10
2017-09-15T05:05:18.317Z,13.20
2017-09-15T05:07:46.558Z,13.20
2017-09-15T05:10:14.037Z,13.10
2017-09-15T05:12:42.314Z,13.20
2017-09-15T05:15:10.572Z,13.20
2017-09-15T05:17:38.146Z,13.20
2017-09-15T05:20:06.397Z,13.20
2017-09-15T05:22:33.853Z,13.20
2017-09-15T05:25:02.826Z,13.20
2017-09-15T05:27:30.305Z,13.20
2017-09-15T05:29:57.785Z,13.10
2017-09-15T05:32:26.222Z,13.10
2017-09-15T05:34:53.695Z,13.10
2017-09-15T05:37:21.176Z,13.10
2017-09-15T05:39:48.637Z,13.20
2017-09-15T05:42:16.883Z,13.20
2017-09-15T05:44:44.390Z,13.20
2017-09-15T05:47:11.898Z,13.30
2017-09-15T05:49:39.377Z,13.30
2017-09-15T05:52:06.859Z,13.30
2017-09-15T05:54:35.126Z,13.30
2017-09-15T05:57:03.380Z,13.30
2017-09-15T05:59:30.941Z,13.30
2017-09-15T06:01:58.500Z,13.30
2017-09-15T06:04:25.978Z,13.20
2017-09-15T06:06:53.464Z,13.30
2017-09-15T06:09:20.925Z,13.30
2017-09-15T06:11:48.395Z,13.30
2017-09-15T06:14:15.872Z,13.30
2017-09-15T06:16:43.335Z,13.30
2017-09-15T06:19:10.823Z,13.40
2017-09-15T06:21:39.079Z,13.20
2017-09-15T06:24:06.557Z,13.20
2017-09-15T06:26:34.802Z,13.40
2017-09-15T06:29:02.274Z,13.30
2017-09-15T06:31:30.509Z,13.50
2017-09-15T06:33:57.979Z,13.40
2017-09-15T06:36:25.449Z,13.50
2017-09-15T06:38:52.941Z,13.50
2017-09-15T06:41:20.462Z,13.50
2017-09-15T06:43:48.053Z,13.60
2017-09-15T06:46:15.517Z,13.60
2017-09-15T06:48:42.984Z,13.70
2017-09-15T06:51:10.453Z,13.70
2017-09-15T06:53:37.927Z,13.70
2017-09-15T06:56:05.398Z,13.70
2017-09-15T06:58:32.868Z,13.60
2017-09-15T07:01:00.433Z,13.60
2017-09-15T07:03:27.976Z,13.70
2017-09-15T07:05:55.593Z,13.60
2017-09-15T07:08:23.097Z,13.60
2017-09-15T07:10:51.332Z,13.70
2017-09-15T07:13:18.784Z,13.60
2017-09-15T07:15:46.248Z,13.80
2017-09-15T07:18:13.718Z,14.10
2017-09-15T07:20:41.201Z,14.00
2017-09-15T07:23:08.681Z,14.00
2017-09-15T07:25:36.913Z,14.10
2017-09-15T07:28:04.393Z,14.10
2017-09-15T07:30:32.023Z,14.30
2017-09-15T07:32:59.490Z,14.30
2017-09-15T07:35:27.119Z,14.30
2017-09-15T07:37:55.410Z,14.30
2017-09-15T07:40:22.951Z,14.40
2017-09-15T07:42:50.412Z,14.40
2017-09-15T07:45:17.874Z,14.50
2017-09-15T07:47:45.354Z,14.70
2017-09-15T07:50:12.817Z,14.70
2017-09-15T07:52:40.289Z,14.50
2017-09-15T07:55:07.769Z,14.40
2017-09-15T07:57:35.993Z,14.60
2017-09-15T08:00:03.513Z,14.50
2017-09-15T08:02:31.003Z,14.60
2017-09-15T08:04:58.473Z,14.60
2017-09-15T08:07:25.938Z,14.60
2017-09-15T08:09:53.417Z,14.90
2017-09-15T08:12:21.649Z,15.10
2017-09-15T08:14:49.125Z,15.00
2017-09-15T08:17:17.358Z,15.00
2017-09-15T08:19:44.832Z,15.00
2017-09-15T08:22:12.323Z,15.00
2017-09-15T08:24:39.809Z,15.10
2017-09-15T08:27:07.266Z,15.30
2017-09-15T08:29:34.926Z,15.20
2017-09-15T08:32:02.381Z,15.30
2017-09-15T08:34:29.862Z,15.30
2017-09-15T08:36:57.370Z,15.30
2017-09-15T08:39:25.797Z,15.40
2017-09-15T08:41:54.231Z,15.50
2017-09-15T08:44:21.701Z,15.40
2017-09-15T08:46:49.947Z,15.40
2017-09-15T08:49:17.416Z,15.40
2017-09-15T08:51:44.895Z,15.50
2017-09-15T08:54:13.121Z,15.70
2017-09-15T08:56:40.585Z,15.70
2017-09-15T08:59:08.071Z,15.90
2017-09-15T09:01:36.336Z,15.60
2017-09-15T09:04:03.889Z,15.60
2017-09-15T09:06:31.365Z,15.40
2017-09-15T09:08:59.605Z,15.60
2017-09-15T09:11:27.074Z,15.50
2017-09-15T09:13:54.552Z,15.90
2017-09-15T09:16:22.789Z,16.10
2017-09-15T09:18:50.286Z,16.10
2017-09-15T09:21:18.620Z,16.40
2017-09-15T09:23:46.120Z,16.40
2017-09-15T09:26:13.663Z,16.60
2017-09-15T09:28:41.278Z,16.70
2017-09-15T09:31:08.758Z,16.50
2017-09-15T09:33:36.228Z,16.20
2017-09-15T09:36:03.719Z,16.00
2017-09-15T09:38:31.255Z,16.10
2017-09-15T09:40:58.760Z,15.90
2017-09-15T09:43:26.217Z,15.90
2017-09-15T09:45:53.686Z,16.00
2017-09-15T09:48:21.165Z,16.20
2017-09-15T09:50:48.790Z,16.50
2017-09-15T09:53:16.246Z,16.70
2017-09-15T09:55:43.727Z,17.00
2017-09-15T09:58:11.232Z,16.90
2017-09-15T10:00:38.760Z,17.10
2017-09-15T10:03:06.217Z,17.50
2017-09-15T10:05:33.777Z,17.80
2017-09-15T10:08:01.260Z,18.10
2017-09-15T10:10:29.507Z,17.30
2017-09-15T10:12:58.474Z,17.10
2017-09-15T10:15:25.952Z,17.10
2017-09-15T10:17:53.410Z,17.00
2017-09-15T10:20:21.668Z,16.60
2017-09-15T10:22:49.129Z,16.50
2017-09-15T10:25:16.602Z,16.60
2017-09-15T10:27:44.063Z,16.70
2017-09-15T10:30:11.631Z,16.80
2017-09-15T10:32:39.093Z,16.80
2017-09-15T10:35:07.371Z,16.80
2017-09-15T10:37:35.597Z,16.90
2017-09-15T10:40:03.078Z,16.90
2017-09-15T10:42:30.550Z,16.90
2017-09-15T10:44:58.098Z,16.80
2017-09-15T10:47:25.566Z,16.70
2017-09-15T10:49:53.067Z,16.80
2017-09-15T10:52:20.565Z,16.90
2017-09-15T10:54:48.026Z,17.00
2017-09-15T10:57:15.499Z,17.50
2017-09-15T10:59:48.739Z,17.60
2017-09-15T11:02:16.445Z,17.60
2017-09-15T11:04:45.212Z,17.30
2017-09-15T11:07:12.802Z,17.20
2017-09-15T11:09:41.043Z,17.00
2017-09-15T11:12:08.506Z,17.00
2017-09-15T11:14:35.967Z,17.10
2017-09-15T11:17:03.443Z,17.10
2017-09-15T11:19:31.683Z,17.00
2017-09-15T11:21:59.148Z,17.00
2017-09-15T11:24:26.629Z,17.00
2017-09-15T11:26:54.103Z,16.90
2017-09-15T11:29:22.327Z,16.80
2017-09-15T11:31:49.810Z,16.80
2017-09-15T11:34:17.294Z,16.80
2017-09-15T11:36:44.779Z,16.80
2017-09-15T11:39:12.245Z,16.90
2017-09-15T11:41:39.716Z,16.90
2017-09-15T11:44:07.183Z,17.00
2017-09-15T11:46:34.653Z,16.90
2017-09-15T11:49:02.109Z,16.90
2017-09-15T11:51:30.481Z,16.90
2017-09-15T11:53:57.958Z,17.10
2017-09-15T11:56:26.226Z,17.10
2017-09-15T11:58:54.488Z,17.10
2017-09-15T12:01:21.959Z,17.00
2017-09-15T12:03:50.200Z,17.00
2017-09-15T12:06:17.661Z,17.00
2017-09-15T12:08:45.127Z,17.20
2017-09-15T12:11:12.618Z,17.30
2017-09-15T12:13:40.857Z,17.50
2017-09-15T12:16:08.433Z,17.50
2017-09-15T12:18:35.896Z,17.50
2017-09-15T12:21:04.151Z,17.70
2017-09-15T12:23:31.635Z,17.70
2017-09-15T12:25:59.905Z,18.40
2017-09-15T12:28:28.133Z,18.40
2017-09-15T12:30:55.620Z,18.40
2017-09-15T12:33:23.089Z,18.40
2017-09-15T12:35:50.954Z,18.40
2017-09-15T12:38:18.412Z,18.30
2017-09-15T12:40:45.869Z,18.00
2017-09-15T12:43:13.429Z,17.80
2017-09-15T12:45:41.657Z,17.60
2017-09-15T12:48:09.201Z,17.50
2017-09-15T12:50:36.657Z,17.50
2017-09-15T12:53:04.136Z,17.50
2017-09-15T12:55:31.632Z,17.50
2017-09-15T12:57:59.134Z,17.60
2017-09-15T13:00:26.595Z,17.60
2017-09-15T13:02:54.102Z,17.60
2017-09-15T13:05:21.561Z,17.80
2017-09-15T13:07:49.026Z,17.90
2017-09-15T13:10:17.253Z,18.60
2017-09-15T13:12:44.720Z,18.50
2017-09-15T13:15:12.179Z,18.80
2017-09-15T13:17:39.707Z,18.80
2017-09-15T13:20:07.149Z,18.80
2017-09-15T13:22:34.723Z,18.80
2017-09-15T13:25:02.183Z,18.70
2017-09-15T13:27:29.643Z,18.70
2017-09-15T13:29:57.099Z,18.70
2017-09-15T13:32:24.573Z,18.80
2017-09-15T13:34:52.041Z,18.60
2017-09-15T13:37:19.534Z,18.50
2017-09-15T13:39:47.777Z,18.40
2017-09-15T13:42:16.002Z,18.50
2017-09-15T13:44:43.478Z,18.50
2017-09-15T13:47:10.961Z,18.60
2017-09-15T13:49:38.522Z,18.40
2017-09-15T13:52:05.981Z,18.30
2017-09-15T13:54:34.955Z,18.30
2017-09-15T13:57:02.426Z,18.30
2017-09-15T13:59:31.421Z,18.10
2017-09-15T14:01:58.877Z,18.10
2017-09-15T14:04:26.436Z,18.00
2017-09-15T14:06:53.895Z,18.00
2017-09-15T14:09:21.457Z,18.00
2017-09-15T14:11:50.451Z,17.80
2017-09-15T14:14:17.913Z,17.80
2017-09-15T14:16:45.373Z,17.70
2017-09-15T14:19:13.621Z,17.50
2017-09-15T14:21:41.075Z,17.40
2017-09-15T14:24:08.541Z,17.50
2017-09-15T14:26:35.999Z,17.30
2017-09-15T14:29:03.570Z,17.10
2017-09-15T14:31:31.133Z,17.00
2017-09-15T14:33:59.374Z,16.80
2017-09-15T14:36:26.881Z,16.80
2017-09-15T14:38:55.113Z,16.70
2017-09-15T14:41:22.601Z,16.60
2017-09-15T14:43:50.867Z,16.40
2017-09-15T14:46:18.321Z,16.40
2017-09-15T14:48:45.793Z,16.50
2017-09-15T14:51:14.027Z,16.50
2017-09-15T14:53:41.611Z,16.50
2017-09-15T14:56:09.072Z,16.70
2017-09-15T14:58:36.624Z,16.60
2017-09-15T15:01:04.084Z,16.80
2017-09-15T15:03:31.536Z,17.10
2017-09-15T15:05:58.998Z,17.60
2017-09-15T15:08:26.554Z,17.90
2017-09-15T15:10:54.113Z,17.70
2017-09-15T15:13:22.389Z,17.20
2017-09-15T15:15:49.958Z,17.20
2017-09-15T15:18:18.195Z,17.10
2017-09-15T15:20:45.734Z,17.00
2017-09-15T15:23:13.243Z,17.10
2017-09-15T15:25:40.719Z,17.00
2017-09-15T15:28:08.970Z,17.10
2017-09-15T15:30:36.429Z,17.00
2017-09-15T15:33:04.653Z,17.10
2017-09-15T15:35:32.161Z,17.00
2017-09-15T15:37:59.649Z,16.90
2017-09-15T15:40:27.193Z,16.90
2017-09-15T15:42:55.440Z,17.00
2017-09-15T15:45:22.898Z,17.00
2017-09-15T15:47:50.357Z,17.10
2017-09-15T15:50:17.817Z,17.20
2017-09-15T15:52:45.280Z,17.20
2017-09-15T15:55:12.756Z,17.20
2017-09-15T15:57:41.006Z,17.20
2017-09-15T16:00:08.465Z,17.20
2017-09-15T16:02:36.023Z,17.20
2017-09-15T16:05:05.043Z,17.10
2017-09-15T16:07:33.275Z,17.10
2017-09-15T16:10:00.766Z,17.00
2017-09-15T16:12:28.997Z,17.10
2017-09-15T16:14:56.466Z,17.10
2017-09-15T16:17:23.926Z,17.10
2017-09-15T16:19:52.165Z,17.10
2017-09-15T16:22:19.639Z,17.10
2017-09-15T16:24:47.104Z,17.10
2017-09-15T16:27:14.558Z,17.10
2017-09-15T16:29:42.026Z,17.00
2017-09-15T16:32:10.284Z,17.10
2017-09-15T16:34:37.777Z,17.00
2017-09-15T16:37:06.017Z,17.00
2017-09-15T16:39:39.115Z,17.00
2017-09-15T16:42:12.373Z,17.00
2017-09-15T16:44:45.616Z,16.90
2017-09-15T16:47:18.838Z,16.90
2017-09-15T16:49:45.852Z,16.90
2017-09-15T16:52:13.389Z,16.90
2017-09-15T16:54:40.841Z,16.80
2017-09-15T16:57:08.314Z,16.80
2017-09-15T16:59:35.785Z,16.80
2017-09-15T17:02:03.259Z,16.80
2017-09-15T17:04:31.485Z,16.70
2017-09-15T17:06:58.970Z,16.60
2017-09-15T17:09:28.016Z,16.60
2017-09-15T17:11:55.485Z,16.60
2017-09-15T17:14:22.967Z,16.50
2017-09-15T17:16:50.455Z,16.50
2017-09-15T17:19:18.721Z,16.40
2017-09-15T17:21:46.955Z,16.30
2017-09-15T17:24:14.422Z,16.30
2017-09-15T17:26:41.910Z,16.30
2017-09-15T17:29:10.148Z,16.30
2017-09-15T17:31:37.614Z,16.20
2017-09-15T17:34:05.086Z,16.20
2017-09-15T17:36:32.560Z,16.20
2017-09-15T17:39:00.802Z,16.20
2017-09-15T17:41:28.277Z,16.10
2017-09-15T17:43:56.526Z,16.10
2017-09-15T17:46:23.997Z,16.10
2017-09-15T17:48:51.453Z,16.10
2017-09-15T17:51:18.940Z,16.00
2017-09-15T17:53:47.186Z,15.90
2017-09-15T17:56:14.678Z,15.90
2017-09-15T17:58:42.151Z,15.90
2017-09-15T18:01:09.618Z,15.80
2017-09-15T18:03:37.086Z,15.80
2017-09-15T18:06:04.575Z,15.70
2017-09-15T18:08:32.037Z,15.70
2017-09-15T18:10:59.519Z,15.60
2017-09-15T18:13:27.038Z,15.60
2017-09-15T18:15:54.715Z,15.50
2017-09-15T18:18:22.992Z,15.40
2017-09-15T18:20:50.445Z,15.40
2017-09-15T18:23:17.989Z,15.40
2017-09-15T18:25:46.229Z,15.40
2017-09-15T18:28:13.693Z,15.40
2017-09-15T18:30:41.165Z,15.40
2017-09-15T18:33:08.644Z,15.40
2017-09-15T18:35:36.204Z,15.40
2017-09-15T18:38:03.767Z,15.30
2017-09-15T18:40:31.225Z,15.30
2017-09-15T18:42:58.691Z,15.30
2017-09-15T18:45:26.929Z,15.30
2017-09-15T18:47:54.403Z,15.30
2017-09-15T18:50:21.869Z,15.30
2017-09-15T18:52:49.345Z,15.40
2017-09-15T18:55:17.596Z,15.40
2017-09-15T18:57:45.089Z,15.30
2017-09-15T19:00:12.576Z,15.40
2017-09-15T19:02:40.045Z,15.40
2017-09-15T19:05:07.517Z,15.40
2017-09-15T19:07:35.059Z,15.30
2017-09-15T19:10:02.499Z,15.30
2017-09-15T19:12:29.965Z,15.30
2017-09-15T19:14:57.428Z,15.20
2017-09-15T19:17:24.911Z,15.20
2017-09-15T19:19:52.474Z,15.20
2017-09-15T19:22:20.722Z,15.10
2017-09-15T19:24:48.192Z,15.10
2017-09-15T19:27:15.686Z,15.10
2017-09-15T19:29:43.916Z,15.10
2017-09-15T19:32:11.399Z,15.10
2017-09-15T19:34:39.633Z,15.00
2017-09-15T19:37:07.116Z,15.00
2017-09-15T19:39:34.569Z,15.00
2017-09-15T19:42:02.036Z,15.00
2017-09-15T19:44:29.609Z,15.00
2017-09-15T19:46:57.186Z,15.00
2017-09-15T19:49:24.887Z,15.00
2017-09-15T19:51:52.349Z,14.90
2017-09-15T19:54:19.818Z,14.90
2017-09-15T19:56:47.298Z,14.90
2017-09-15T19:59:15.549Z,14.70
2017-09-15T20:01:43.025Z,14.70
2017-09-15T20:04:11.277Z,14.70
2017-09-15T20:06:38.842Z,14.70
2017-09-15T20:09:06.319Z,14.70
2017-09-15T20:11:34.569Z,14.60
2017-09-15T20:14:02.136Z,14.60
2017-09-15T20:16:29.620Z,14.60
2017-09-15T20:18:57.840Z,14.50
2017-09-15T20:21:25.310Z,14.50
2017-09-15T20:23:52.877Z,14.50
2017-09-15T20:26:20.343Z,14.50
2017-09-15T20:28:48.672Z,14.40
2017-09-15T20:31:16.143Z,14.30
2017-09-15T20:33:43.635Z,14.40
2017-09-15T20:36:11.129Z,14.40
2017-09-15T20:38:38.594Z,14.30
2017-09-15T20:41:06.075Z,14.20
2017-09-15T20:43:34.040Z,14.20
2017-09-15T20:46:01.531Z,14.20
2017-09-15T20:48:29.477Z,14.10
2017-09-15T20:50:57.109Z,14.10
2017-09-15T20:53:25.438Z,13.90
2017-09-15T20:55:52.914Z,13.90
2017-09-15T20:58:21.145Z,13.90
2017-09-15T21:00:48.606Z,13.80
2017-09-15T21:03:16.176Z,13.80
2017-09-15T21:05:43.643Z,13.80
2017-09-15T21:08:11.899Z,13.80
2017-09-15T21:10:39.365Z,13.70
2017-09-15T21:13:06.829Z,13.80
2017-09-15T21:15:34.299Z,13.80
2017-09-15T21:18:02.539Z,13.80
2017-09-15T21:20:30.010Z,13.70
2017-09-15T21:22:57.471Z,13.80
2017-09-15T21:25:24.969Z,13.70
2017-09-15T21:27:52.540Z,13.70
2017-09-15T21:30:20.044Z,13.60
2017-09-15T21:32:47.506Z,13.50
2017-09-15T21:35:15.075Z,13.50
2017-09-15T21:37:43.337Z,13.40
2017-09-15T21:40:10.801Z,13.40
2017-09-15T21:42:38.271Z,13.40
2017-09-15T21:45:06.510Z,13.40
2017-09-15T21:47:33.988Z,13.40
2017-09-15T21:50:01.472Z,13.50
2017-09-15T21:52:28.946Z,13.50
2017-09-15T21:54:56.405Z,13.50
2017-09-15T21:57:23.860Z,13.40
2017-09-15T21:59:51.334Z,13.50
2017-09-15T22:02:18.804Z,13.50
2017-09-15T22:04:46.283Z,13.40
2017-09-15T22:07:13.755Z,13.40
2017-09-15T22:09:41.992Z,13.40
2017-09-15T22:12:09.456Z,13.30
2017-09-15T22:14:36.926Z,13.40
2017-09-15T22:17:04.394Z,13.30
2017-09-15T22:19:31.878Z,13.30
2017-09-15T22:21:59.337Z,13.20
2017-09-15T22:24:26.830Z,13.20
2017-09-15T22:26:54.290Z,13.20
2017-09-15T22:29:21.816Z,13.10
2017-09-15T22:31:49.284Z,13.00
2017-09-15T22:34:16.786Z,13.00
2017-09-15T22:36:45.025Z,12.90
2017-09-15T22:39:13.259Z,12.90
2017-09-15T22:41:41.485Z,12.90
2017-09-15T22:44:08.945Z,12.80
2017-09-15T22:46:36.400Z,12.90
2017-09-15T22:49:03.889Z,12.90
2017-09-15T22:51:32.149Z,12.80
2017-09-15T22:53:59.625Z,12.70
2017-09-15T22:56:27.861Z,12.70
2017-09-15T22:58:55.329Z,12.70
2017-09-15T23:01:22.810Z,12.60
2017-09-15T23:03:51.048Z,12.50
2017-09-15T23:06:18.515Z,12.50
2017-09-15T23:08:45.987Z,12.60
2017-09-15T23:11:14.236Z,12.60
2017-09-15T23:13:41.802Z,12.50
2017-09-15T23:16:09.273Z,12.60
2017-09-15T23:18:36.751Z,12.60
2017-09-15T23:21:04.989Z,12.70
2017-09-15T23:23:32.446Z,12.60
2017-09-15T23:25:59.970Z,12.70
2017-09-15T23:28:27.430Z,12.70
2017-09-15T23:30:54.936Z,12.60
2017-09-15T23:33:22.392Z,12.60
2017-09-15T23:35:50.634Z,12.50
2017-09-15T23:38:18.114Z,12.50
2017-09-15T23:40:45.593Z,12.50
2017-09-15T23:43:13.826Z,12.40
2017-09-15T23:45:41.394Z,12.40
2017-09-15T23:48:08.878Z,12.50
2017-09-15T23:50:37.132Z,12.50
2017-09-15T23:53:04.604Z,12.40
2017-09-15T23:55:32.877Z,12.40
2017-09-15T23:58:00.345Z,12.30
